createdAt,value
2023-05-09T00:01:31.728Z,15.02
2023-05-09T00:04:00.636Z,14.55
2023-05-09T00:06:30.589Z,13.30
2023-05-09T00:08:59.289Z,12.80
2023-05-09T00:11:27.378Z,13.65
2023-05-09T00:13:55.775Z,14.13
2023-05-09T00:16:24.247Z,13.43
2023-05-09T00:18:52.806Z,12.80
2023-05-09T00:21:20.956Z,12.25
2023-05-09T00:23:50.812Z,11.88
2023-05-09T00:26:18.894Z,12.10
2023-05-09T00:28:47.377Z,11.93
2023-05-09T00:31:15.630Z,12.23
2023-05-09T00:33:43.966Z,11.82
2023-05-09T00:36:12.106Z,11.73
2023-05-09T00:38:40.588Z,11.68
2023-05-09T00:41:10.155Z,11.95
2023-05-09T00:43:38.532Z,12.27
2023-05-09T00:46:06.946Z,11.55
2023-05-09T00:48:35.636Z,11.60
2023-05-09T00:51:04.846Z,13.57
2023-05-09T00:53:33.404Z,14.55
2023-05-09T00:56:02.138Z,14.82
2023-05-09T00:58:32.128Z,14.23
2023-05-09T01:03:43.030Z,16.17
2023-05-09T01:06:16.338Z,17.30
2023-05-09T01:08:48.424Z,16.75
2023-05-09T01:14:01.686Z,15.05
2023-05-09T01:16:36.886Z,13.68
2023-05-09T01:19:19.641Z,12.93
2023-05-09T01:21:49.278Z,12.27
2023-05-09T01:24:38.762Z,12.27
2023-05-09T01:27:23.239Z,13.98
2023-05-09T01:29:58.402Z,13.25
2023-05-09T01:32:28.712Z,12.93
2023-05-09T01:34:57.842Z,15.18
2023-05-09T01:37:31.285Z,14.20
2023-05-09T01:40:02.043Z,12.85
2023-05-09T01:42:39.342Z,14.23
2023-05-09T01:45:10.297Z,14.63
2023-05-09T01:47:39.658Z,14.23
2023-05-09T01:50:08.758Z,12.45
2023-05-09T01:52:37.325Z,14.77
2023-05-09T01:55:07.182Z,13.07
2023-05-09T01:57:36.672Z,13.38
2023-05-09T02:00:07.866Z,13.32
2023-05-09T02:02:38.085Z,13.00
2023-05-09T02:05:08.019Z,12.57
2023-05-09T02:07:36.578Z,11.93
2023-05-09T02:10:05.370Z,12.43
2023-05-09T02:12:33.906Z,12.18
2023-05-09T02:15:02.067Z,11.95
2023-05-09T02:17:30.661Z,12.80
2023-05-09T02:20:00.899Z,14.40
2023-05-09T02:22:29.605Z,14.32
2023-05-09T02:24:58.280Z,13.80
2023-05-09T02:27:27.248Z,14.90
2023-05-09T02:29:58.287Z,14.25
2023-05-09T02:32:29.803Z,13.35
2023-05-09T02:35:00.394Z,14.35
2023-05-09T02:37:29.338Z,13.63
2023-05-09T02:39:57.501Z,13.23
2023-05-09T02:42:27.172Z,12.38
2023-05-09T02:44:55.814Z,13.25
2023-05-09T02:47:24.235Z,12.93
2023-05-09T02:49:52.380Z,10.85
2023-05-09T02:52:22.671Z,12.20
2023-05-09T02:54:50.776Z,12.05
2023-05-09T02:57:19.158Z,13.40
2023-05-09T02:59:47.317Z,12.05
2023-05-09T03:02:15.895Z,12.43
2023-05-09T03:04:44.016Z,12.20
2023-05-09T03:07:12.369Z,13.25
2023-05-09T03:09:41.883Z,13.07
2023-05-09T03:12:10.265Z,13.43
2023-05-09T03:14:38.376Z,13.70
2023-05-09T03:17:06.754Z,14.30
2023-05-09T03:19:35.240Z,13.68
2023-05-09T03:22:03.651Z,15.07
2023-05-09T03:24:31.930Z,16.52
2023-05-09T03:27:01.740Z,16.25
2023-05-09T03:29:29.870Z,21.08
2023-05-09T03:31:58.367Z,24.70
2023-05-09T03:34:26.536Z,22.45
2023-05-09T03:36:54.911Z,26.15
2023-05-09T03:39:23.187Z,21.85
2023-05-09T03:41:51.567Z,18.67
2023-05-09T03:44:21.061Z,19.63
2023-05-09T03:46:50.127Z,19.08
2023-05-09T03:49:18.286Z,19.77
2023-05-09T03:51:46.677Z,19.95
2023-05-09T03:54:14.807Z,20.65
2023-05-09T03:56:43.326Z,19.80
2023-05-09T03:59:11.416Z,20.25
2023-05-09T04:01:41.220Z,20.83
2023-05-09T04:04:09.375Z,20.98
2023-05-09T04:06:37.920Z,22.08
2023-05-09T04:09:06.611Z,21.70
2023-05-09T04:11:35.012Z,20.25
2023-05-09T04:14:06.924Z,22.50
2023-05-09T04:16:35.572Z,22.98
2023-05-09T04:19:07.119Z,21.95
2023-05-09T04:21:35.543Z,22.52
2023-05-09T04:24:03.821Z,23.05
2023-05-09T04:26:32.325Z,22.55
2023-05-09T04:29:00.444Z,23.13
2023-05-09T04:31:29.009Z,23.42
2023-05-09T04:33:58.254Z,23.45
2023-05-09T04:36:28.918Z,23.05
2023-05-09T04:38:57.118Z,23.00
2023-05-09T04:41:25.678Z,22.73
2023-05-09T04:43:53.772Z,21.80
2023-05-09T04:46:25.016Z,22.15
2023-05-09T04:48:53.812Z,19.73
2023-05-09T04:51:22.151Z,22.35
2023-05-09T04:53:52.221Z,22.75
2023-05-09T04:56:20.570Z,20.77
2023-05-09T04:58:48.748Z,20.73
2023-05-09T05:01:17.471Z,23.55
2023-05-09T05:03:45.965Z,20.70
2023-05-09T05:06:14.361Z,20.23
2023-05-09T05:08:43.122Z,18.75
2023-05-09T05:11:13.701Z,18.02
2023-05-09T05:13:42.007Z,18.85
2023-05-09T05:16:10.505Z,18.75
2023-05-09T05:18:38.618Z,18.92
2023-05-09T05:21:07.487Z,19.52
2023-05-09T05:23:35.584Z,19.38
2023-05-09T05:26:04.037Z,18.85
2023-05-09T05:28:33.637Z,16.80
2023-05-09T05:31:02.026Z,17.77
2023-05-09T05:33:30.175Z,18.35
2023-05-09T05:35:58.579Z,17.40
2023-05-09T05:38:26.704Z,16.95
2023-05-09T05:40:55.088Z,14.90
2023-05-09T05:43:23.553Z,14.15
2023-05-09T05:45:53.326Z,11.25
2023-05-09T05:48:21.474Z,12.15
2023-05-09T05:50:49.945Z,11.25
2023-05-09T05:53:18.113Z,11.35
2023-05-09T05:55:46.907Z,11.68
2023-05-09T05:58:15.192Z,11.60
2023-05-09T06:00:43.566Z,11.60
2023-05-09T06:03:14.390Z,10.60
2023-05-09T06:05:44.070Z,11.93
2023-05-09T06:08:12.195Z,11.00
2023-05-09T06:10:40.721Z,10.82
2023-05-09T06:13:09.082Z,11.65
2023-05-09T06:15:37.460Z,10.57
2023-05-09T06:18:05.800Z,9.95
2023-05-09T06:20:36.035Z,10.82
2023-05-09T06:23:04.412Z,11.40
2023-05-09T06:25:32.827Z,8.98
2023-05-09T06:28:00.958Z,9.90
2023-05-09T06:30:29.554Z,9.90
2023-05-09T06:32:58.841Z,9.35
2023-05-09T06:35:27.278Z,9.90
2023-05-09T06:37:56.751Z,10.55
2023-05-09T06:40:25.117Z,9.85
2023-05-09T06:42:53.432Z,10.85
2023-05-09T06:45:22.068Z,9.93
2023-05-09T06:47:50.236Z,10.27
2023-05-09T06:50:18.598Z,9.13
2023-05-09T06:52:46.742Z,9.57
2023-05-09T06:55:16.677Z,11.10
2023-05-09T06:57:45.027Z,10.30
2023-05-09T07:00:14.579Z,8.95
2023-05-09T07:02:43.253Z,8.95
2023-05-09T07:05:12.105Z,9.05
2023-05-09T07:07:40.713Z,8.32
2023-05-09T07:10:12.317Z,9.23
2023-05-09T07:12:42.360Z,9.75
2023-05-09T07:15:11.996Z,8.30
2023-05-09T07:17:40.345Z,8.25
2023-05-09T07:20:09.519Z,8.90
2023-05-09T07:22:37.972Z,8.68
2023-05-09T07:25:08.751Z,9.15
2023-05-09T07:27:36.937Z,8.60
2023-05-09T07:30:09.132Z,9.02
2023-05-09T07:32:37.523Z,8.77
2023-05-09T07:35:06.778Z,8.25
2023-05-09T07:37:35.424Z,8.65
2023-05-09T07:40:06.102Z,8.60
2023-05-09T07:42:34.324Z,7.20
2023-05-09T07:45:04.395Z,6.88
2023-05-09T07:47:33.962Z,5.53
2023-05-09T07:50:02.399Z,5.60
2023-05-09T07:52:30.665Z,5.13
2023-05-09T07:54:59.217Z,5.88
2023-05-09T07:57:27.497Z,5.13
2023-05-09T07:59:56.041Z,5.65
2023-05-09T08:02:24.204Z,5.15
2023-05-09T08:04:54.174Z,5.32
2023-05-09T08:07:22.346Z,4.50
2023-05-09T08:09:50.785Z,5.10
2023-05-09T08:12:19.157Z,4.80
2023-05-09T08:14:47.579Z,3.47
2023-05-09T08:17:16.203Z,4.80
2023-05-09T08:19:44.793Z,4.05
2023-05-09T08:22:19.465Z,4.93
2023-05-09T08:24:47.985Z,4.55
2023-05-09T08:27:16.233Z,4.35
2023-05-09T08:29:45.057Z,4.63
2023-05-09T08:32:13.174Z,4.72
2023-05-09T08:34:41.587Z,4.93
2023-05-09T08:37:09.847Z,4.20
2023-05-09T08:39:39.750Z,4.43
2023-05-09T08:42:08.073Z,3.85
2023-05-09T08:44:36.779Z,4.10
2023-05-09T08:47:05.788Z,4.30
2023-05-09T08:49:34.714Z,3.88
2023-05-09T08:52:03.150Z,4.30
2023-05-09T08:54:31.575Z,4.35
2023-05-09T08:57:02.424Z,3.97
2023-05-09T08:59:31.315Z,4.00
2023-05-09T09:02:00.017Z,3.15
2023-05-09T09:04:28.518Z,3.63
2023-05-09T09:06:57.126Z,2.95
2023-05-09T09:09:25.832Z,3.53
2023-05-09T09:11:55.406Z,3.38
2023-05-09T09:14:26.721Z,3.60
2023-05-09T09:16:57.083Z,3.00
2023-05-09T09:19:31.320Z,2.95
2023-05-09T09:22:01.113Z,3.22
2023-05-09T09:24:29.605Z,3.80
2023-05-09T09:26:57.969Z,3.75
2023-05-09T09:29:28.708Z,3.20
2023-05-09T09:31:56.950Z,3.13
2023-05-09T09:34:25.589Z,3.40
2023-05-09T09:36:53.702Z,3.30
2023-05-09T09:39:22.997Z,3.75
2023-05-09T09:41:51.109Z,2.83
2023-05-09T09:44:20.569Z,2.70
2023-05-09T09:46:51.292Z,2.65
2023-05-09T09:49:21.239Z,3.22
2023-05-09T09:51:54.695Z,3.30
2023-05-09T09:54:23.534Z,3.20
2023-05-09T09:56:54.270Z,3.28
2023-05-09T09:59:25.098Z,3.40
2023-05-09T10:02:00.211Z,2.70
2023-05-09T10:04:31.621Z,2.78
2023-05-09T10:07:03.350Z,3.20
2023-05-09T10:09:32.037Z,2.85
2023-05-09T10:12:04.805Z,3.78
2023-05-09T10:14:35.515Z,3.08
2023-05-09T10:17:06.342Z,2.88
2023-05-09T10:19:35.036Z,2.28
2023-05-09T10:22:05.907Z,2.83
2023-05-09T10:24:36.840Z,2.90
2023-05-09T10:27:07.620Z,2.85
2023-05-09T10:29:37.457Z,2.95
2023-05-09T10:32:13.311Z,2.50
2023-05-09T10:34:43.493Z,2.95
2023-05-09T10:37:12.582Z,2.88
2023-05-09T10:39:41.576Z,3.33
2023-05-09T10:42:10.116Z,3.08
2023-05-09T10:44:38.984Z,2.75
2023-05-09T10:47:08.942Z,2.40
2023-05-09T10:49:37.713Z,3.05
2023-05-09T10:52:06.236Z,3.20
2023-05-09T10:54:37.787Z,3.20
2023-05-09T10:57:07.217Z,2.47
2023-05-09T10:59:37.781Z,2.85
2023-05-09T11:02:08.530Z,3.00
2023-05-09T11:04:37.023Z,4.03
2023-05-09T11:07:05.921Z,3.38
2023-05-09T11:09:37.060Z,2.78
2023-05-09T11:12:12.767Z,3.25
2023-05-09T11:14:45.830Z,2.83
2023-05-09T11:17:16.755Z,2.72
2023-05-09T11:20:02.341Z,2.93
2023-05-09T11:22:32.611Z,3.00
2023-05-09T11:25:05.765Z,2.55
2023-05-09T11:27:40.763Z,2.50
2023-05-09T11:30:10.450Z,2.85
2023-05-09T11:32:47.879Z,2.40
2023-05-09T11:35:18.934Z,2.83
2023-05-09T11:37:49.740Z,2.75
2023-05-09T11:40:19.065Z,2.80
2023-05-09T11:42:49.728Z,2.20
2023-05-09T11:45:18.545Z,2.60
2023-05-09T11:47:48.977Z,2.30
2023-05-09T11:50:19.427Z,2.88
2023-05-09T11:52:47.838Z,2.50
2023-05-09T11:55:18.599Z,2.22
2023-05-09T11:57:49.908Z,2.35
2023-05-09T12:00:20.404Z,2.33
2023-05-09T12:02:51.373Z,2.83
2023-05-09T12:05:22.054Z,2.83
2023-05-09T12:07:50.702Z,2.70
2023-05-09T12:10:21.429Z,2.40
2023-05-09T12:12:50.553Z,2.75
2023-05-09T12:15:20.091Z,2.42
2023-05-09T12:18:02.222Z,2.40
2023-05-09T12:20:41.777Z,1.90
2023-05-09T12:23:11.531Z,3.40
2023-05-09T12:25:39.941Z,2.50
2023-05-09T12:28:08.257Z,2.53
2023-05-09T12:30:36.804Z,2.13
2023-05-09T12:33:07.272Z,2.30
2023-05-09T12:35:36.400Z,2.30
2023-05-09T12:38:04.681Z,2.45
2023-05-09T12:40:33.106Z,2.40
2023-05-09T12:43:03.011Z,2.45
2023-05-09T12:45:33.579Z,2.22
2023-05-09T12:48:02.500Z,2.15
2023-05-09T12:50:36.329Z,2.10
2023-05-09T12:53:05.190Z,1.70
2023-05-09T12:55:40.578Z,1.88
2023-05-09T12:58:09.000Z,1.92
2023-05-09T13:00:44.121Z,2.00
2023-05-09T13:03:24.969Z,2.03
2023-05-09T13:05:59.301Z,2.23
2023-05-09T13:08:27.526Z,2.20
2023-05-09T13:11:07.903Z,1.90
2023-05-09T13:13:43.743Z,2.25
2023-05-09T13:16:14.855Z,2.65
2023-05-09T13:18:45.266Z,2.92
2023-05-09T13:21:15.070Z,2.42
2023-05-09T13:23:45.289Z,2.45
2023-05-09T13:26:13.637Z,2.22
2023-05-09T13:28:41.785Z,1.63
2023-05-09T13:31:10.215Z,2.50
2023-05-09T13:33:38.683Z,2.10
2023-05-09T13:36:07.524Z,2.88
2023-05-09T13:38:40.321Z,2.65
2023-05-09T13:41:08.773Z,2.25
2023-05-09T13:43:37.592Z,2.28
2023-05-09T13:46:06.126Z,1.80
2023-05-09T13:48:34.318Z,1.70
2023-05-09T13:51:03.613Z,1.88
2023-05-09T13:53:31.761Z,2.65
2023-05-09T13:56:01.502Z,2.10
2023-05-09T13:58:29.610Z,2.67
2023-05-09T14:00:58.045Z,2.55
2023-05-09T14:03:26.592Z,1.88
2023-05-09T14:05:55.487Z,1.70
2023-05-09T14:08:23.757Z,1.80
2023-05-09T14:10:52.217Z,1.65
2023-05-09T14:13:21.942Z,1.77
2023-05-09T14:15:50.530Z,2.30
2023-05-09T14:18:20.943Z,2.00
2023-05-09T14:20:50.117Z,2.38
2023-05-09T14:23:18.812Z,1.70
2023-05-09T14:25:47.281Z,2.60
2023-05-09T14:28:15.950Z,2.38
2023-05-09T14:30:45.895Z,2.10
2023-05-09T14:33:14.493Z,2.05
2023-05-09T14:35:42.910Z,1.90
2023-05-09T14:38:12.506Z,1.65
2023-05-09T14:40:41.004Z,1.65
2023-05-09T14:43:09.450Z,1.65
2023-05-09T14:45:37.908Z,2.20
2023-05-09T14:48:07.541Z,1.77
2023-05-09T14:50:36.410Z,3.35
2023-05-09T14:53:05.003Z,2.70
2023-05-09T14:55:33.404Z,2.70
2023-05-09T14:58:02.698Z,2.58
2023-05-09T15:00:31.194Z,3.50
2023-05-09T15:02:59.310Z,1.75
2023-05-09T15:05:29.190Z,2.67
2023-05-09T15:07:57.297Z,1.42
2023-05-09T15:10:27.528Z,2.25
2023-05-09T15:12:56.097Z,2.08
2023-05-09T15:15:25.080Z,1.88
2023-05-09T15:17:53.810Z,2.00
2023-05-09T15:20:22.458Z,1.98
2023-05-09T15:22:52.163Z,2.30
2023-05-09T15:25:21.831Z,2.10
2023-05-09T15:27:50.444Z,2.30
2023-05-09T15:30:18.907Z,1.95
2023-05-09T15:32:47.083Z,2.72
2023-05-09T15:35:15.848Z,2.42
2023-05-09T15:37:43.991Z,1.90
2023-05-09T15:40:14.538Z,2.97
2023-05-09T15:42:43.273Z,3.70
2023-05-09T15:45:11.975Z,2.50
2023-05-09T15:47:40.122Z,2.92
2023-05-09T15:50:09.327Z,2.50
2023-05-09T15:52:37.537Z,2.38
2023-05-09T15:55:07.064Z,2.65
2023-05-09T15:57:36.665Z,2.35
2023-05-09T16:00:05.772Z,2.03
2023-05-09T16:02:33.992Z,2.10
2023-05-09T16:05:02.644Z,2.45
2023-05-09T16:07:33.388Z,2.33
2023-05-09T16:10:04.174Z,2.60
2023-05-09T16:12:32.962Z,2.22
2023-05-09T16:15:03.057Z,2.90
2023-05-09T16:17:31.572Z,2.30
2023-05-09T16:20:00.096Z,2.50
2023-05-09T16:22:28.256Z,2.65
2023-05-09T16:24:56.812Z,2.03
2023-05-09T16:27:25.005Z,2.33
2023-05-09T16:29:53.388Z,2.35
2023-05-09T16:32:22.932Z,2.50
2023-05-09T16:34:51.672Z,2.30
2023-05-09T16:37:19.877Z,2.58
2023-05-09T16:39:48.341Z,2.30
2023-05-09T16:42:16.405Z,2.20
2023-05-09T16:44:44.852Z,2.63
2023-05-09T16:47:13.014Z,2.53
2023-05-09T16:49:42.760Z,2.05
2023-05-09T16:52:10.883Z,2.00
2023-05-09T16:54:39.350Z,2.58
2023-05-09T16:57:07.534Z,1.65
2023-05-09T16:59:37.171Z,2.17
2023-05-09T17:02:05.664Z,2.33
2023-05-09T17:04:36.687Z,2.28
2023-05-09T17:07:07.090Z,2.85
2023-05-09T17:09:35.467Z,2.75
2023-05-09T17:12:03.583Z,2.85
2023-05-09T17:14:32.005Z,2.65
2023-05-09T17:17:00.172Z,3.10
2023-05-09T17:19:28.675Z,2.88
2023-05-09T17:21:58.836Z,2.63
2023-05-09T17:24:29.524Z,2.97
2023-05-09T17:26:57.687Z,2.50
2023-05-09T17:29:26.578Z,2.75
2023-05-09T17:31:54.886Z,3.20
2023-05-09T17:34:23.367Z,2.92
2023-05-09T17:36:52.284Z,3.22
2023-05-09T17:39:20.868Z,2.80
2023-05-09T17:41:50.504Z,3.08
2023-05-09T17:44:18.933Z,2.88
2023-05-09T17:46:48.398Z,2.85
2023-05-09T17:49:16.996Z,4.43
2023-05-09T17:51:45.400Z,4.35
2023-05-09T17:54:14.262Z,3.83
2023-05-09T17:56:42.356Z,3.88
2023-05-09T17:59:13.308Z,3.95
2023-05-09T18:01:41.705Z,3.90
2023-05-09T18:04:10.231Z,4.88
2023-05-09T18:06:38.345Z,3.95
2023-05-09T18:09:06.970Z,4.25
2023-05-09T18:11:35.551Z,4.20
2023-05-09T18:14:03.962Z,4.50
2023-05-09T18:16:35.514Z,3.88
2023-05-09T18:19:04.055Z,4.45
2023-05-09T18:21:32.352Z,4.40
2023-05-09T18:24:01.275Z,4.10
2023-05-09T18:26:29.602Z,4.07
2023-05-09T18:31:41.802Z,4.30
2023-05-09T18:34:10.312Z,4.40
2023-05-09T18:36:38.613Z,4.63
2023-05-09T18:39:08.786Z,4.30
2023-05-09T18:41:36.903Z,4.40
2023-05-09T18:44:05.460Z,4.72
2023-05-09T18:46:33.785Z,4.53
2023-05-09T18:49:04.058Z,4.20
2023-05-09T18:51:33.983Z,4.95
2023-05-09T18:54:02.497Z,5.78
2023-05-09T18:56:30.863Z,5.10
2023-05-09T18:58:59.229Z,5.38
2023-05-09T19:01:27.640Z,5.55
2023-05-09T19:03:56.079Z,4.78
2023-05-09T19:06:26.191Z,5.70
2023-05-09T19:08:54.724Z,5.60
2023-05-09T19:11:23.264Z,5.78
2023-05-09T19:13:53.118Z,5.63
2023-05-09T19:16:22.443Z,6.05
2023-05-09T19:18:51.322Z,5.78
2023-05-09T19:21:19.527Z,6.18
2023-05-09T19:23:49.282Z,4.97
2023-05-09T19:26:17.630Z,5.25
2023-05-09T19:28:46.902Z,5.45
2023-05-09T19:31:15.762Z,5.50
2023-05-09T19:33:45.797Z,5.53
2023-05-09T19:36:14.165Z,5.95
2023-05-09T19:38:42.614Z,5.05
2023-05-09T19:41:12.805Z,5.18
2023-05-09T19:43:41.521Z,5.47
2023-05-09T19:46:10.744Z,6.07
2023-05-09T19:48:39.251Z,6.00
2023-05-09T19:51:08.771Z,5.47
2023-05-09T19:53:37.697Z,6.25
2023-05-09T19:56:07.893Z,6.25
2023-05-09T19:58:37.689Z,6.55
2023-05-09T20:01:07.211Z,6.82
2023-05-09T20:03:36.904Z,7.22
2023-05-09T20:06:05.778Z,6.30
2023-05-09T20:08:34.382Z,6.93
2023-05-09T20:11:03.142Z,7.43
2023-05-09T20:13:31.670Z,7.07
2023-05-09T20:16:02.864Z,8.30
2023-05-09T20:18:33.237Z,7.35
2023-05-09T20:21:01.634Z,7.32
2023-05-09T20:23:31.190Z,7.63
2023-05-09T20:25:59.378Z,7.95
2023-05-09T20:28:28.224Z,8.02
2023-05-09T20:30:57.614Z,7.18
2023-05-09T20:33:27.592Z,7.55
2023-05-09T20:35:55.783Z,7.25
2023-05-09T20:38:24.157Z,8.60
2023-05-09T20:40:52.295Z,7.88
2023-05-09T20:43:20.776Z,34.22
2023-05-09T20:45:49.010Z,37.10
2023-05-09T20:48:17.467Z,47.58
2023-05-09T20:50:46.930Z,21.00
2023-05-09T20:53:15.597Z,45.85
2023-05-09T20:55:43.792Z,57.97
2023-05-09T20:58:14.707Z,60.35
2023-05-09T21:00:42.859Z,44.47
2023-05-09T21:03:11.335Z,36.08
2023-05-09T21:05:39.612Z,74.82
2023-05-09T21:08:09.384Z,61.55
2023-05-09T21:10:37.512Z,45.67
2023-05-09T21:13:05.986Z,48.55
2023-05-09T21:15:34.166Z,51.00
2023-05-09T21:18:02.816Z,34.78
2023-05-09T21:20:31.214Z,40.55
2023-05-09T21:22:59.561Z,26.95
2023-05-09T21:25:29.211Z,35.42
2023-05-09T21:27:57.643Z,23.65
2023-05-09T21:30:25.782Z,45.85
2023-05-09T21:32:54.328Z,26.38
2023-05-09T21:35:22.554Z,29.38
2023-05-09T21:37:52.617Z,17.63
2023-05-09T21:40:20.879Z,22.10
2023-05-09T21:42:50.711Z,20.98
2023-05-09T21:45:19.092Z,18.88
2023-05-09T21:47:47.625Z,12.55
2023-05-09T21:50:16.177Z,20.95
2023-05-09T21:52:44.861Z,16.05
2023-05-09T21:55:14.152Z,12.95
2023-05-09T21:57:42.620Z,11.73
2023-05-09T22:00:15.333Z,14.00
2023-05-09T22:02:44.067Z,14.50
2023-05-09T22:05:13.571Z,13.82
2023-05-09T22:07:41.979Z,15.35
2023-05-09T22:10:11.215Z,14.85
2023-05-09T22:12:39.820Z,11.93
2023-05-09T22:15:09.054Z,11.50
2023-05-09T22:17:38.935Z,11.10
2023-05-09T22:20:09.058Z,11.73
2023-05-09T22:22:37.432Z,11.05
2023-05-09T22:25:06.146Z,11.05
2023-05-09T22:27:34.623Z,12.95
2023-05-09T22:30:02.841Z,12.88
2023-05-09T22:32:31.268Z,14.65
2023-05-09T22:35:00.809Z,11.18
2023-05-09T22:37:29.523Z,9.73
2023-05-09T22:39:57.672Z,9.77
2023-05-09T22:42:26.102Z,10.80
2023-05-09T22:44:54.352Z,9.73
2023-05-09T22:47:22.745Z,9.48
2023-05-09T22:49:51.309Z,9.07
2023-05-09T22:52:21.188Z,9.95
2023-05-09T22:54:49.437Z,10.50
2023-05-09T22:57:19.154Z,11.25
2023-05-09T22:59:47.352Z,11.55
2023-05-09T23:02:15.773Z,9.57
2023-05-09T23:04:43.931Z,12.77
2023-05-09T23:07:12.358Z,15.77
2023-05-09T23:09:41.808Z,14.13
2023-05-09T23:12:10.759Z,10.73
2023-05-09T23:14:39.210Z,11.50
2023-05-09T23:17:07.877Z,9.85
2023-05-09T23:19:36.069Z,10.90
2023-05-09T23:22:04.612Z,10.73
2023-05-09T23:24:32.716Z,10.75
2023-05-09T23:27:03.498Z,9.90
2023-05-09T23:29:33.065Z,9.98
2023-05-09T23:32:01.481Z,9.98
2023-05-09T23:34:30.738Z,10.85
2023-05-09T23:36:59.178Z,11.32
2023-05-09T23:39:27.275Z,10.90
2023-05-09T23:41:55.928Z,10.70
2023-05-09T23:44:25.698Z,10.80
2023-05-09T23:46:54.215Z,11.57
2023-05-09T23:49:22.499Z,9.48
2023-05-09T23:51:50.864Z,9.88
2023-05-09T23:54:21.253Z,9.57
2023-05-09T23:56:49.806Z,11.40
2023-05-09T23:59:18.089Z,9.38
